createdAt,value
2023-05-06T00:02:55.508Z,15.20
2023-05-06T00:05:58.310Z,15.98
2023-05-06T00:09:01.277Z,15.57
2023-05-06T00:12:05.579Z,14.35
2023-05-06T00:15:09.190Z,14.50
2023-05-06T00:18:11.984Z,14.63
2023-05-06T00:21:14.548Z,14.40
2023-05-06T00:24:17.490Z,14.07
2023-05-06T00:27:20.024Z,14.25
2023-05-06T00:30:23.213Z,14.93
2023-05-06T00:33:26.460Z,14.13
2023-05-06T00:36:29.167Z,14.60
2023-05-06T00:39:31.905Z,15.55
2023-05-06T00:42:34.535Z,14.60
2023-05-06T00:45:37.533Z,14.63
2023-05-06T00:48:40.203Z,14.50
2023-05-06T00:51:43.002Z,14.30
2023-05-06T00:54:46.029Z,14.60
2023-05-06T00:57:51.945Z,14.00
2023-05-06T01:00:55.457Z,15.38
2023-05-06T01:03:58.862Z,14.57
2023-05-06T01:07:07.640Z,13.70
2023-05-06T01:10:19.001Z,14.48
2023-05-06T01:13:34.281Z,13.95
2023-05-06T01:16:39.922Z,14.65
2023-05-06T01:19:49.088Z,14.10
2023-05-06T01:22:52.183Z,13.02
2023-05-06T01:25:54.853Z,14.15
2023-05-06T01:28:58.617Z,13.90
2023-05-06T01:32:21.979Z,13.70
2023-05-06T01:35:31.974Z,13.50
2023-05-06T01:39:05.841Z,13.70
2023-05-06T01:42:10.258Z,13.95
2023-05-06T01:45:15.595Z,13.43
2023-05-06T01:48:19.993Z,13.85
2023-05-06T01:51:24.960Z,13.27
2023-05-06T01:54:27.613Z,14.07
2023-05-06T01:57:30.370Z,13.25
2023-05-06T02:00:34.054Z,13.35
2023-05-06T02:03:37.728Z,13.80
2023-05-06T02:06:40.522Z,13.67
2023-05-06T02:09:43.010Z,12.63
2023-05-06T02:12:46.193Z,14.45
2023-05-06T02:15:56.152Z,13.55
2023-05-06T02:18:59.080Z,13.95
2023-05-06T02:22:02.522Z,12.50
2023-05-06T02:25:05.922Z,12.88
2023-05-06T02:28:08.520Z,12.48
2023-05-06T02:31:17.956Z,12.65
2023-05-06T02:34:20.757Z,13.02
2023-05-06T02:37:23.584Z,11.97
2023-05-06T02:40:26.961Z,12.45
2023-05-06T02:43:29.713Z,12.88
2023-05-06T02:46:33.137Z,11.90
2023-05-06T02:49:35.883Z,13.45
2023-05-06T02:52:38.558Z,13.00
2023-05-06T02:55:41.151Z,12.73
2023-05-06T02:58:43.938Z,12.35
2023-05-06T03:01:46.613Z,12.32
2023-05-06T03:04:49.459Z,13.32
2023-05-06T03:07:52.121Z,12.97
2023-05-06T03:10:54.783Z,13.40
2023-05-06T03:13:58.339Z,13.18
2023-05-06T03:17:01.131Z,12.82
2023-05-06T03:20:05.756Z,12.23
2023-05-06T03:23:08.970Z,12.57
2023-05-06T03:26:12.109Z,12.05
2023-05-06T03:29:15.371Z,11.73
2023-05-06T03:32:21.108Z,12.43
2023-05-06T03:35:23.932Z,11.98
2023-05-06T03:38:31.237Z,11.87
2023-05-06T03:41:37.994Z,12.30
2023-05-06T03:44:41.054Z,12.38
2023-05-06T03:47:44.216Z,12.05
2023-05-06T03:50:47.871Z,11.90
2023-05-06T03:53:52.969Z,12.10
2023-05-06T03:56:57.632Z,12.15
2023-05-06T04:00:01.287Z,11.75
2023-05-06T04:03:04.198Z,11.75
2023-05-06T04:06:23.218Z,11.55
2023-05-06T04:09:25.910Z,12.53
2023-05-06T04:12:30.349Z,12.32
2023-05-06T04:15:34.625Z,11.77
2023-05-06T04:18:39.954Z,11.65
2023-05-06T04:21:46.897Z,11.55
2023-05-06T04:24:50.851Z,11.50
2023-05-06T04:27:53.423Z,10.40
2023-05-06T04:30:56.908Z,11.43
2023-05-06T04:34:07.950Z,11.27
2023-05-06T04:37:11.329Z,11.20
2023-05-06T04:40:27.892Z,10.70
2023-05-06T04:43:31.163Z,10.85
2023-05-06T04:46:41.906Z,11.25
2023-05-06T04:49:45.016Z,10.45
2023-05-06T04:52:48.379Z,10.85
2023-05-06T04:55:55.643Z,10.60
2023-05-06T04:58:58.920Z,10.40
2023-05-06T05:02:02.217Z,11.07
2023-05-06T05:05:05.272Z,10.48
2023-05-06T05:08:09.558Z,10.25
2023-05-06T05:11:13.818Z,10.87
2023-05-06T05:14:18.355Z,10.25
2023-05-06T05:17:21.276Z,10.80
2023-05-06T05:20:25.555Z,9.73
2023-05-06T05:23:28.644Z,9.70
2023-05-06T05:26:31.323Z,9.60
2023-05-06T05:29:35.922Z,10.38
2023-05-06T05:32:41.857Z,10.05
2023-05-06T05:35:44.701Z,9.75
2023-05-06T05:38:48.951Z,9.55
2023-05-06T05:41:53.343Z,9.47
2023-05-06T05:44:56.849Z,10.20
2023-05-06T05:48:00.955Z,10.15
2023-05-06T05:51:03.874Z,9.68
2023-05-06T05:54:06.429Z,10.15
2023-05-06T05:57:09.722Z,9.70
2023-05-06T06:00:13.830Z,9.68
2023-05-06T06:03:22.324Z,9.50
2023-05-06T06:06:25.365Z,9.05
2023-05-06T06:09:28.664Z,9.65
2023-05-06T06:12:32.096Z,9.80
2023-05-06T06:15:35.882Z,8.73
2023-05-06T06:18:39.334Z,9.07
2023-05-06T06:21:42.460Z,8.85
2023-05-06T06:24:45.304Z,9.05
2023-05-06T06:27:48.062Z,9.00
2023-05-06T06:30:50.914Z,9.20
2023-05-06T06:33:53.789Z,8.95
2023-05-06T06:36:56.412Z,9.40
2023-05-06T06:39:59.024Z,8.55
2023-05-06T06:43:01.827Z,8.90
2023-05-06T06:46:27.612Z,7.93
2023-05-06T06:49:31.209Z,8.57
2023-05-06T06:52:34.314Z,9.20
2023-05-06T06:55:37.047Z,8.90
2023-05-06T06:58:40.146Z,8.53
2023-05-06T07:01:42.771Z,8.27
2023-05-06T07:04:45.573Z,8.38
2023-05-06T07:07:48.344Z,8.60
2023-05-06T07:10:51.062Z,8.23
2023-05-06T07:13:53.784Z,8.40
2023-05-06T07:16:56.497Z,8.43
2023-05-06T07:19:59.806Z,8.27
2023-05-06T07:23:02.410Z,7.97
2023-05-06T07:26:05.322Z,8.00
2023-05-06T07:29:08.193Z,8.07
2023-05-06T07:32:10.926Z,8.15
2023-05-06T07:35:13.494Z,8.60
2023-05-06T07:38:16.090Z,8.38
2023-05-06T07:41:18.990Z,8.18
2023-05-06T07:44:21.528Z,7.73
2023-05-06T07:47:32.283Z,7.72
2023-05-06T07:50:35.030Z,8.30
2023-05-06T07:53:40.202Z,7.82
2023-05-06T07:56:44.064Z,8.07
2023-05-06T07:59:48.708Z,7.00
2023-05-06T08:02:51.404Z,7.80
2023-05-06T08:05:55.327Z,7.35
2023-05-06T08:08:58.028Z,8.05
2023-05-06T08:12:00.534Z,7.97
2023-05-06T08:15:03.570Z,7.40
2023-05-06T08:18:20.687Z,7.43
2023-05-06T08:21:24.790Z,7.75
2023-05-06T08:24:28.753Z,7.30
2023-05-06T08:27:31.639Z,7.93
2023-05-06T08:30:34.323Z,7.73
2023-05-06T08:33:36.924Z,7.13
2023-05-06T08:36:39.503Z,6.93
2023-05-06T08:39:42.030Z,7.28
2023-05-06T08:42:46.754Z,7.28
2023-05-06T08:45:49.864Z,6.97
2023-05-06T08:48:53.210Z,7.65
2023-05-06T08:51:57.239Z,6.88
2023-05-06T08:55:05.061Z,7.13
2023-05-06T08:58:10.938Z,7.25
2023-05-06T09:01:15.203Z,6.93
2023-05-06T09:04:18.492Z,7.80
2023-05-06T09:07:22.735Z,7.60
2023-05-06T09:10:25.349Z,7.28
2023-05-06T09:13:28.017Z,7.28
2023-05-06T09:16:30.986Z,7.20
2023-05-06T09:19:38.175Z,6.88
2023-05-06T09:22:41.647Z,6.68
2023-05-06T09:25:46.799Z,7.43
2023-05-06T09:28:51.177Z,6.85
2023-05-06T09:31:54.067Z,6.80
2023-05-06T09:34:56.876Z,6.65
2023-05-06T09:37:59.644Z,7.22
2023-05-06T09:41:04.743Z,6.60
2023-05-06T09:44:07.553Z,6.65
2023-05-06T09:47:10.880Z,6.70
2023-05-06T09:50:14.113Z,6.70
2023-05-06T09:53:18.812Z,6.82
2023-05-06T09:56:21.857Z,6.80
2023-05-06T09:59:26.183Z,6.70
2023-05-06T10:02:29.447Z,6.40
2023-05-06T10:05:33.363Z,6.95
2023-05-06T10:08:37.073Z,6.82
2023-05-06T10:11:39.976Z,6.70
2023-05-06T10:14:42.724Z,6.70
2023-05-06T10:17:48.212Z,6.67
2023-05-06T10:20:53.708Z,6.50
2023-05-06T10:24:09.183Z,6.63
2023-05-06T10:27:12.645Z,6.68
2023-05-06T10:30:19.193Z,6.25
2023-05-06T10:33:24.481Z,6.30
2023-05-06T10:36:32.196Z,6.50
2023-05-06T10:39:35.197Z,6.07
2023-05-06T10:42:38.330Z,6.45
2023-05-06T10:46:00.017Z,6.05
2023-05-06T10:49:11.630Z,6.70
2023-05-06T10:52:20.919Z,6.03
2023-05-06T10:55:34.616Z,6.05
2023-05-06T10:58:40.224Z,6.20
2023-05-06T11:01:44.249Z,6.68
2023-05-06T11:04:52.569Z,6.03
2023-05-06T11:08:09.871Z,6.20
2023-05-06T11:11:50.110Z,6.63
2023-05-06T11:14:53.097Z,6.18
2023-05-06T11:17:56.917Z,6.63
2023-05-06T11:21:05.400Z,6.47
2023-05-06T11:24:09.273Z,5.97
2023-05-06T11:27:12.592Z,6.35
2023-05-06T11:30:16.020Z,6.32
2023-05-06T11:33:20.064Z,6.05
2023-05-06T11:36:23.016Z,5.77
2023-05-06T11:39:38.771Z,5.93
2023-05-06T11:42:42.486Z,6.28
2023-05-06T11:45:47.169Z,6.47
2023-05-06T11:48:50.957Z,6.40
2023-05-06T11:51:55.160Z,5.70
2023-05-06T11:54:57.821Z,6.03
2023-05-06T11:58:00.528Z,6.43
2023-05-06T12:01:04.554Z,6.68
2023-05-06T12:04:07.725Z,6.20
2023-05-06T12:07:13.208Z,5.93
2023-05-06T12:10:17.305Z,5.97
2023-05-06T12:13:20.422Z,6.10
2023-05-06T12:16:24.247Z,6.28
2023-05-06T12:19:28.432Z,5.85
2023-05-06T12:22:30.970Z,6.10
2023-05-06T12:25:37.054Z,5.97
2023-05-06T12:28:42.667Z,5.90
2023-05-06T12:31:47.416Z,5.70
2023-05-06T12:34:50.321Z,5.95
2023-05-06T12:37:53.032Z,5.40
2023-05-06T12:40:55.966Z,5.47
2023-05-06T12:43:58.547Z,5.53
2023-05-06T12:47:07.547Z,6.03
2023-05-06T12:50:10.753Z,5.72
2023-05-06T12:53:13.690Z,5.87
2023-05-06T12:56:16.785Z,5.40
2023-05-06T12:59:19.345Z,6.20
2023-05-06T13:02:22.124Z,5.75
2023-05-06T13:05:24.969Z,6.00
2023-05-06T13:08:28.724Z,5.80
2023-05-06T13:11:31.323Z,5.53
2023-05-06T13:14:33.878Z,5.90
2023-05-06T13:17:36.492Z,5.72
2023-05-06T13:20:39.294Z,6.00
2023-05-06T13:23:47.049Z,5.43
2023-05-06T13:26:49.757Z,5.68
2023-05-06T13:29:52.337Z,5.63
2023-05-06T13:32:54.995Z,5.28
2023-05-06T13:35:57.682Z,5.35
2023-05-06T13:39:00.690Z,5.20
2023-05-06T13:42:05.402Z,5.50
2023-05-06T13:45:09.728Z,6.32
2023-05-06T13:48:13.551Z,6.10
2023-05-06T13:51:16.348Z,5.70
2023-05-06T13:54:18.986Z,5.30
2023-05-06T13:57:21.603Z,5.70
2023-05-06T14:00:24.276Z,5.72
2023-05-06T14:03:26.908Z,5.38
2023-05-06T14:06:29.535Z,5.95
2023-05-06T14:09:32.289Z,5.63
2023-05-06T14:12:35.109Z,5.53
2023-05-06T14:15:37.885Z,5.47
2023-05-06T14:18:40.750Z,5.45
2023-05-06T14:21:43.534Z,5.85
2023-05-06T14:24:46.497Z,5.80
2023-05-06T14:27:49.029Z,5.68
2023-05-06T14:30:51.605Z,5.80
2023-05-06T14:33:54.465Z,5.70
2023-05-06T14:36:57.658Z,5.30
2023-05-06T14:40:00.288Z,5.23
2023-05-06T14:43:03.367Z,5.57
2023-05-06T14:46:06.272Z,5.80
2023-05-06T14:49:09.136Z,5.85
2023-05-06T14:52:11.839Z,5.22
2023-05-06T14:55:14.632Z,5.40
2023-05-06T14:58:17.860Z,5.05
2023-05-06T15:01:20.450Z,5.82
2023-05-06T15:04:23.283Z,5.50
2023-05-06T15:07:25.964Z,5.90
2023-05-06T15:10:28.594Z,5.40
2023-05-06T15:13:31.346Z,5.25
2023-05-06T15:16:33.885Z,5.50
2023-05-06T15:19:36.687Z,5.30
2023-05-06T15:22:39.803Z,5.97
2023-05-06T15:25:42.665Z,5.30
2023-05-06T15:28:45.414Z,5.68
2023-05-06T15:31:48.456Z,5.15
2023-05-06T15:34:51.003Z,5.88
2023-05-06T15:37:58.968Z,5.40
2023-05-06T15:41:01.662Z,5.50
2023-05-06T15:44:06.131Z,5.55
2023-05-06T15:47:09.054Z,5.90
2023-05-06T15:50:24.690Z,5.70
2023-05-06T15:53:34.241Z,5.47
2023-05-06T15:56:40.769Z,5.43
2023-05-06T15:59:44.216Z,4.93
2023-05-06T16:02:47.064Z,5.20
2023-05-06T16:05:49.739Z,5.40
2023-05-06T16:08:52.563Z,5.03
2023-05-06T16:11:55.194Z,5.03
2023-05-06T16:15:01.086Z,4.90
2023-05-06T16:18:03.896Z,5.20
2023-05-06T16:21:07.939Z,4.70
2023-05-06T16:24:11.007Z,5.47
2023-05-06T16:27:14.160Z,5.30
2023-05-06T16:30:17.890Z,5.20
2023-05-06T16:33:20.475Z,5.45
2023-05-06T16:36:23.024Z,5.03
2023-05-06T16:39:25.674Z,4.95
2023-05-06T16:42:28.641Z,5.10
2023-05-06T16:45:31.238Z,5.10
2023-05-06T16:48:33.965Z,5.00
2023-05-06T16:51:36.986Z,4.93
2023-05-06T16:54:39.605Z,5.25
2023-05-06T16:57:42.481Z,5.43
2023-05-06T17:00:45.479Z,5.22
2023-05-06T17:03:48.151Z,5.03
2023-05-06T17:06:51.004Z,5.25
2023-05-06T17:09:53.528Z,5.30
2023-05-06T17:12:57.495Z,4.90
2023-05-06T17:16:00.239Z,5.15
2023-05-06T17:19:03.013Z,4.95
2023-05-06T17:22:05.913Z,4.88
2023-05-06T17:25:09.073Z,5.05
2023-05-06T17:28:11.642Z,5.00
2023-05-06T17:31:15.400Z,4.95
2023-05-06T17:34:18.032Z,5.10
2023-05-06T17:37:20.748Z,4.85
2023-05-06T17:40:24.508Z,5.50
2023-05-06T17:43:27.219Z,4.87
2023-05-06T17:46:31.349Z,5.10
2023-05-06T17:49:34.597Z,4.72
2023-05-06T17:52:37.186Z,5.28
2023-05-06T17:55:39.919Z,5.45
2023-05-06T17:58:42.475Z,5.27
2023-05-06T18:01:45.757Z,4.70
2023-05-06T18:04:48.277Z,4.90
2023-05-06T18:07:50.941Z,5.10
2023-05-06T18:10:53.851Z,4.80
2023-05-06T18:13:56.837Z,4.87
2023-05-06T18:16:59.570Z,4.90
2023-05-06T18:20:02.397Z,5.15
2023-05-06T18:23:05.305Z,5.10
2023-05-06T18:26:07.946Z,4.78
2023-05-06T18:29:10.725Z,4.63
2023-05-06T18:32:13.804Z,4.90
2023-05-06T18:35:16.495Z,5.10
2023-05-06T18:38:19.460Z,4.65
2023-05-06T18:41:22.085Z,5.07
2023-05-06T18:44:24.720Z,4.90
2023-05-06T18:47:27.497Z,5.10
2023-05-06T18:50:30.076Z,4.82
2023-05-06T18:53:32.788Z,4.68
2023-05-06T18:56:36.868Z,4.70
2023-05-06T18:59:39.456Z,4.83
2023-05-06T19:02:42.206Z,5.13
2023-05-06T19:05:44.731Z,4.72
2023-05-06T19:08:47.465Z,4.97
2023-05-06T19:11:50.154Z,5.18
2023-05-06T19:14:52.813Z,5.00
2023-05-06T19:17:55.602Z,5.32
2023-05-06T19:20:58.323Z,4.57
2023-05-06T19:24:01.409Z,4.47
2023-05-06T19:27:04.144Z,4.70
2023-05-06T19:30:07.526Z,4.23
2023-05-06T19:33:10.268Z,4.50
2023-05-06T19:36:13.155Z,4.93
2023-05-06T19:39:16.484Z,4.60
2023-05-06T19:42:19.166Z,4.47
2023-05-06T19:45:21.941Z,5.13
2023-05-06T19:48:24.775Z,4.53
2023-05-06T19:51:28.590Z,4.70
2023-05-06T19:54:31.441Z,4.65
2023-05-06T19:57:34.213Z,4.63
2023-05-06T20:00:36.885Z,4.47
2023-05-06T20:03:39.679Z,4.75
2023-05-06T20:06:42.570Z,4.43
2023-05-06T20:09:45.621Z,4.40
2023-05-06T20:12:48.284Z,4.60
2023-05-06T20:15:51.137Z,4.53
2023-05-06T20:18:54.082Z,4.68
2023-05-06T20:21:57.860Z,4.70
2023-05-06T20:25:16.196Z,4.40
2023-05-06T20:28:19.149Z,4.50
2023-05-06T20:31:21.787Z,4.70
2023-05-06T20:34:24.870Z,4.22
2023-05-06T20:37:30.628Z,4.50
2023-05-06T20:40:35.859Z,4.80
2023-05-06T20:43:38.630Z,4.40
2023-05-06T20:46:41.190Z,4.67
2023-05-06T20:49:43.799Z,3.97
2023-05-06T20:52:47.331Z,4.50
2023-05-06T20:55:50.117Z,4.28
2023-05-06T20:58:53.308Z,4.47
2023-05-06T21:01:56.643Z,4.37
2023-05-06T21:04:59.224Z,4.32
2023-05-06T21:08:14.633Z,4.75
2023-05-06T21:11:17.626Z,4.30
2023-05-06T21:14:21.773Z,4.68
2023-05-06T21:17:24.487Z,4.40
2023-05-06T21:20:27.160Z,4.20
2023-05-06T21:23:30.033Z,4.65
2023-05-06T21:26:32.854Z,4.00
2023-05-06T21:29:35.415Z,4.30
2023-05-06T21:32:38.052Z,4.43
2023-05-06T21:35:40.738Z,4.47
2023-05-06T21:38:43.489Z,4.80
2023-05-06T21:41:46.386Z,4.55
2023-05-06T21:44:49.342Z,4.75
2023-05-06T21:47:52.290Z,4.30
2023-05-06T21:50:58.253Z,4.30
2023-05-06T21:54:01.136Z,4.40
2023-05-06T21:57:07.945Z,4.20
2023-05-06T22:00:12.450Z,4.35
2023-05-06T22:03:15.321Z,4.50
2023-05-06T22:06:18.130Z,4.90
2023-05-06T22:09:21.096Z,4.32
2023-05-06T22:12:23.843Z,4.35
2023-05-06T22:15:26.624Z,4.32
2023-05-06T22:18:30.099Z,4.43
2023-05-06T22:21:32.935Z,4.30
2023-05-06T22:24:35.768Z,4.22
2023-05-06T22:27:38.280Z,4.07
2023-05-06T22:30:40.924Z,4.30
2023-05-06T22:33:44.193Z,4.23
2023-05-06T22:36:46.759Z,4.13
2023-05-06T22:39:50.930Z,4.43
2023-05-06T22:42:53.736Z,4.53
2023-05-06T22:45:56.548Z,4.28
2023-05-06T22:49:00.197Z,3.90
2023-05-06T22:52:02.983Z,4.35
2023-05-06T22:55:06.701Z,3.90
2023-05-06T22:58:09.423Z,3.95
2023-05-06T23:01:12.249Z,4.30
2023-05-06T23:04:15.263Z,4.20
2023-05-06T23:07:17.949Z,4.18
2023-05-06T23:10:20.670Z,4.00
2023-05-06T23:13:23.466Z,4.40
2023-05-06T23:16:26.434Z,4.00
2023-05-06T23:19:28.985Z,4.10
2023-05-06T23:22:31.694Z,4.20
2023-05-06T23:25:34.385Z,4.00
2023-05-06T23:28:37.121Z,4.10
2023-05-06T23:31:39.780Z,3.75
2023-05-06T23:34:42.338Z,4.07
2023-05-06T23:37:44.893Z,4.20
2023-05-06T23:40:47.594Z,4.18
2023-05-06T23:43:50.458Z,4.38
2023-05-06T23:46:53.274Z,4.15
2023-05-06T23:49:56.316Z,4.17
2023-05-06T23:52:59.019Z,4.10
2023-05-06T23:56:01.714Z,4.13
2023-05-06T23:59:04.318Z,3.97
